Latest Coastal Weather Observations for Albany Airport

IDW60701

Issued at 6:12 am WST Tuesday 28 April 2015 (issued every 10 minutes, with the page automatically refreshed every 10 minutes)

About coastal observations | Map of coastal stations | Coastal observations for WA | Marine services | Other Formats
Station Details ID: 009999 Name: ALBANY AIRPORT Lat: -34.94 Lon: 117.82 Height: 68.4 m
Data from the previous 72 hours. | See also: Recent months at Albany Airport
Date/Time
WST
Temp

°C
Wind Pressure Rain
since 9am
mm
Weather Cloud Vis
km
Sea
Height
m
Swell
Dir
 
Speed
knots
Gust
knots
hPa Trend Height
m
Period
s
Dir
28/06:00am 9.0 NE 6 7 1025.6 F 0.0 Fine Mostly clear 10 - - - -
28/05:30am 9.9 NE 7 9 1025.6 - 0.0 - - 10 - - - -
28/05:00am 9.9 ENE 8 9 1025.6 - 0.0 - - 10 - - - -
28/04:30am 9.7 NE 7 8 1025.5 - 0.0 - - 10 - - - -
28/04:00am 9.7 ENE 6 7 1025.6 - 0.0 - - 10 - - - -
28/03:30am 10.2 NE 5 6 1025.6 - 0.0 - - 10 - - - -
28/03:00am 11.1 ENE 7 8 1025.7 - 0.0 - - 10 - - - -
28/02:30am 12.1 NE 7 9 1025.9 - 0.0 - - 10 - - - -
28/02:00am 12.9 ENE 8 11 1026.1 - 0.0 - - 10 - - - -
28/01:30am 13.2 NE 8 11 1026.5 - 0.0 - - 10 - - - -
28/01:00am 13.2 NE 6 8 1026.5 - 0.0 - - 10 - - - -
28/12:30am 13.6 NE 8 11 1026.5 - 0.0 - - 10 - - - -
28/12:00am 13.5 NE 7 8 1026.5 - 0.0 - - 10 - - - -
 
Date/Time
WST
Temp

°C
Wind Pressure Rain
since 9am
mm
Weather Cloud Vis
km
Sea
Height
m
Swell
Dir
 
Speed
knots
Gust
knots
hPa Trend Height
m
Period
s
Dir
27/11:30pm 13.6 ENE 7 9 1026.7 - 0.0 - - 10 - - - -
27/11:00pm 13.5 NE 8 10 1026.8 - 0.0 - - 10 - - - -
27/10:30pm 13.5 ENE 8 10 1026.9 - 0.0 - - 10 - - - -
27/10:00pm 13.7 ENE 9 11 1027.1 - 0.0 - - 10 - - - -
27/09:30pm 13.4 ENE 7 10 1027.1 - 0.0 - - 10 - - - -
27/09:00pm 13.4 ENE 7 9 1027.2 - 0.0 - - 10 - - - -
27/08:30pm 13.8 ENE 7 9 1027.3 - 0.0 - - 10 - - - -
27/08:00pm 14.4 ENE 8 11 1027.1 - 0.0 - - 10 - - - -
27/07:30pm 14.9 ENE 8 12 1027.1 - 0.0 - - 10 - - - -
27/07:00pm 15.3 ENE 8 11 1026.9 - 0.0 - - 10 - - - -
27/06:30pm 15.8 E 8 12 1026.5 - 0.0 - - 10 - - - -
27/06:00pm 16.2 E 9 13 1026.3 - 0.0 - - 10 - - - -
27/05:30pm 17.2 E 9 16 1026.1 - 0.0 - - 10 - - - -
27/05:00pm 18.1 E 11 18 1026.0 - 0.0 - Mostly clear 10 - - - -
27/04:30pm 19.2 E 11 15 1025.8 - 0.0 - Mostly clear 10 - - - -
27/04:00pm 19.6 ESE 13 16 1025.8 - 0.0 - Mostly clear 10 - - - -
27/03:30pm 20.0 E 15 19 1025.7 - 0.0 - Mostly clear 10 - - - -
27/03:00pm 20.8 ESE 13 17 1025.6 F 0.0 Fine Partly cloudy 30 - - - -
27/02:30pm 21.0 NE 12 15 1025.6 - 0.0 - Mostly clear 10 - - - -
27/02:00pm 22.2 NE 9 14 1025.7 - 0.0 - Mostly clear 10 - - - -
27/01:30pm 21.0 NNE 8 10 1026.0 - 0.0 - Mostly clear 10 - - - -
27/01:00pm 21.7 NE 10 16 1026.3 - 0.0 - Mostly clear 10 - - - -
27/12:30pm 21.5 NNE 6 8 1026.9 - 0.0 - Mostly clear 10 - - - -
27/12:00pm 21.1 NNE 11 17 1027.6 F 0.0 Fine Mostly clear 30 - - - -
27/11:30am 20.8 N 7 12 1028.0 - 0.0 - Mostly clear 10 - - - -
27/11:00am 19.5 E 6 8 1028.4 - 0.0 - Mostly clear 10 - - - -
27/10:30am 18.7 ENE 6 8 1028.6 - 0.0 - Mostly clear 10 - - - -
27/10:00am 17.1 E 5 7 1028.7 - 0.0 - Mostly clear 10 - - - -
27/09:30am 15.8 E 6 8 1028.9 - 0.0 - Mostly clear 10 - - - -
27/09:00am 14.3 E 5 6 1029.1 F 0.0 Fine Mostly clear 30 - - - -
27/08:30am 13.3 E 4 6 1028.9 - 0.0 - Mostly clear 10 - - - -
27/08:00am 11.9 NE 5 7 1028.7 - 0.0 - Mostly clear 10 - - - -
27/07:30am 10.3 NE 4 5 1028.5 - 0.0 - Mostly clear 10 - - - -
27/07:00am 8.1 E 5 5 1028.4 - 0.0 - Mostly clear 10 - - - -
27/06:30am 8.5 ESE 5 6 1028.4 - 0.0 Shallow fog Mostly clear 10 - - - -
27/06:00am 8.1 E 5 6 1028.4 F 0.0 Fine Mostly clear 25 - - - -
27/05:53am 8.2 E 6 6 1028.3 - 0.0 - - 6 - - - -
27/05:30am 9.7 ENE 5 6 1028.3 - 0.0 - - 10 - - - -
27/05:00am 10.0 NE 6 7 1028.3 - 0.0 - - 10 - - - -
27/04:30am 10.0 NE 6 8 1028.2 - 0.0 - - 10 - - - -
27/04:16am 9.5 NE 6 7 1028.1 - 0.0 - - 10 - - - -
27/04:00am 8.9 ENE 5 6 1028.1 - 0.0 - - 4 - - - -
27/03:57am 8.8 ENE 5 6 1028.1 - 0.0 - - 5 - - - -
27/03:35am 9.4 NE 6 7 1028.0 - 0.0 - - 10 - - - -
27/03:30am 9.1 NE 5 7 1028.1 - 0.0 - - 10 - - - -
27/03:01am 8.6 NE 5 6 1028.1 - 0.0 - - 6 - - - -
27/03:00am 8.3 NE 5 6 1028.1 - 0.0 - - 7 - - - -
27/02:30am 9.1 ENE 5 5 1028.2 - 0.0 - - 10 - - - -
27/02:10am 9.6 ENE 6 7 1028.4 - 0.0 - - 10 - - - -
27/02:00am 9.7 NE 5 7 1028.3 - 0.0 - - 5 - - - -
27/01:50am 8.7 ENE 4 6 1028.3 - 0.0 - - 5 - - - -
27/01:30am 10.0 NNE 5 5 1028.4 - 0.0 - - 10 - - - -
27/01:00am 9.9 NE 6 7 1028.5 - 0.0 - - 10 - - - -
27/12:30am 9.2 NNE 6 7 1028.5 - 0.0 - - 10 - - - -
27/12:00am 10.4 ENE 5 6 1028.7 - 0.0 - - 10 - - - -
 
Date/Time
WST
Temp

°C
Wind Pressure Rain
since 9am
mm
Weather Cloud Vis
km
Sea
Height
m
Swell
Dir
 
Speed
knots
Gust
knots
hPa Trend Height
m
Period
s
Dir
26/11:30pm 10.4 ENE 6 7 1028.7 - 0.0 - - 10 - - - -
26/11:00pm 10.8 ENE 6 7 1028.9 - 0.0 - - 10 - - - -
26/10:30pm 10.6 E 7 7 1029.0 - 0.0 - - 10 - - - -
26/10:00pm 11.3 ENE 7 8 1029.0 - 0.0 - - 10 - - - -
26/09:30pm 10.9 ENE 6 7 1029.1 - 0.0 - - 10 - - - -
26/09:00pm 11.5 E 7 7 1028.9 - 0.0 - - 10 - - - -
26/08:30pm 12.1 E 7 8 1028.7 - 0.0 - - 10 - - - -
26/08:00pm 13.1 E 7 9 1028.6 - 0.0 - - 10 - - - -
26/07:30pm 12.3 ENE 7 9 1028.6 - 0.0 - - 10 - - - -
26/07:00pm 13.4 E 7 10 1028.4 - 0.0 - - 10 - - - -
26/06:30pm 14.3 E 8 11 1028.1 - 0.0 - - 10 - - - -
26/06:00pm 14.7 E 9 11 1028.0 - 0.0 - - 10 - - - -
26/05:30pm 14.8 ESE 9 13 1027.8 - 0.0 - - 10 - - - -
26/05:00pm 16.0 ESE 12 16 1027.7 - 0.0 - Mostly clear 10 - - - -
26/04:30pm 16.9 ESE 12 16 1027.7 - 0.0 - Mostly clear 10 - - - -
26/04:00pm 17.6 ESE 11 14 1027.5 - 0.0 - Mostly clear 10 - - - -
26/03:30pm 18.1 ESE 10 14 1027.5 - 0.0 - Mostly clear 10 - - - -
26/03:00pm 17.0 ESE 11 13 1027.4 F 0.0 Fine Partly cloudy 30 - - - -
26/02:30pm 18.0 SE 12 17 1027.3 - 0.0 - Mostly clear 10 - - - -
26/02:00pm 17.4 SE 12 15 1027.4 - 0.0 - Mostly clear 10 - - - -
26/01:30pm 18.2 SE 11 14 1027.5 - 0.0 - Mostly clear 10 - - - -
26/01:00pm 17.7 SE 9 12 1027.7 - 0.0 - Mostly clear 10 - - - -
26/12:30pm 19.2 ESE 5 8 1027.9 - 0.0 - Mostly clear 10 - - - -
26/12:00pm 18.4 NE 7 10 1028.6 S 0.0 Fine Partly cloudy 30 - - - -
26/11:30am 18.5 NE 8 11 1029.0 - 0.0 - Mostly clear 10 - - - -
26/11:00am 17.5 NE 8 10 1029.3 - 0.0 - Mostly clear 10 - - - -
26/10:30am 17.7 NE 8 11 1029.5 - 0.0 - Mostly clear 10 - - - -
26/10:00am 16.7 ENE 7 10 1029.7 - 0.0 - - 10 - - - -
26/09:30am 15.3 ENE 5 7 1029.6 - 0.0 - Mostly clear 10 - - - -
26/09:00am 12.8 N 5 6 1029.6 R 0.0 Fine Partly cloudy 30 - - - -
26/08:30am 11.6 NNE 4 5 1029.7 - 0.0 - Mostly clear 10 - - - -
26/08:00am 9.3 N 3 4 1029.6 - 0.0 - Mostly clear 10 - - - -
26/07:30am 6.4 N 1 5 1029.2 - 0.0 - Mostly clear 10 - - - -
26/07:00am 6.5 N 4 5 1029.1 - 0.0 - Mostly clear 10 - - - -
26/06:30am 6.9 N 3 4 1028.8 - 0.0 - Mostly clear 10 - - - -
26/06:00am 6.2 N 4 6 1028.7 F 0.0 Fine Mostly clear 30 - - - -
26/05:44am 6.5 N 5 6 1028.7 - 0.0 - - 10 - - - -
26/05:30am 5.8 N 5 7 1028.6 - 0.0 - - 6 - - - -
26/05:00am 6.5 N 5 6 1028.6 - 0.0 - - 3 - - - -
26/04:30am 6.9 N 4 5 1028.4 - 0.0 - - 2 - - - -
26/04:19am 7.7 N 4 5 1028.3 - 0.0 - - 5 - - - -
26/04:00am 8.0 CALM 0 0 1028.2 - 0.0 - - 10 - - - -
26/03:50am 7.5 CALM 0 0 1028.2 - 0.0 - - 10 - - - -
26/03:30am 7.6 N 3 3 1028.2 - 0.0 - - 1 - - - -
26/03:15am 8.5 N 4 4 1028.3 - 0.0 - - 5 - - - -
26/03:00am 8.1 CALM 0 0 1028.3 - 0.0 - - 10 - - - -
26/02:30am 10.1 CALM 0 0 1028.3 - 0.0 - Partly cloudy 10 - - - -
26/02:00am 11.2 CALM 0 0 1028.4 - 0.0 - Partly cloudy 10 - - - -
26/01:30am 11.4 SW 1 5 1028.5 - 0.0 - Cloudy 10 - - - -
26/01:00am 11.6 CALM 0 0 1028.4 - 0.0 - Cloudy 10 - - - -
26/12:30am 12.1 CALM 0 2 1028.4 - 0.0 - Cloudy 10 - - - -
26/12:00am 11.7 NNE 3 4 1028.4 - 0.0 - Mostly cloudy 10 - - - -
 
Date/Time
WST
Temp

°C
Wind Pressure Rain
since 9am
mm
Weather Cloud Vis
km
Sea
Height
m
Swell
Dir
 
Speed
knots
Gust
knots
hPa Trend Height
m
Period
s
Dir
25/11:30pm 12.8 CALM 0 0 1028.4 - 0.0 - Partly cloudy 10 - - - -
25/11:00pm 13.0 CALM 0 0 1028.7 - 0.0 - Partly cloudy 10 - - - -
25/10:30pm 13.1 E 4 5 1028.8 - 0.0 - Partly cloudy 10 - - - -
25/10:00pm 12.9 CALM 0 0 1029.1 - 0.0 - Cloudy 10 - - - -
25/09:30pm 12.9 CALM 0 0 1029.2 - 0.0 - Partly cloudy 10 - - - -
25/09:00pm 13.3 E 5 5 1029.1 - 0.0 - Cloudy 10 - - - -
25/08:30pm 13.2 ESE 4 5 1028.9 - 0.0 - Cloudy 10 - - - -
25/08:00pm 13.4 SE 4 5 1028.8 - 0.0 - Partly cloudy 10 - - - -
25/07:30pm 13.0 ESE 6 6 1028.6 - 0.0 - Partly cloudy 10 - - - -
25/07:00pm 13.5 ESE 5 5 1028.6 - 0.0 - Cloudy 10 - - - -
25/06:30pm 13.9 ESE 5 7 1028.4 - 0.0 - Partly cloudy 10 - - - -
25/06:00pm 14.1 ESE 6 7 1028.2 - 0.0 - Cloudy 10 - - - -
25/05:30pm 14.3 ESE 6 8 1028.0 - 0.0 - Cloudy 10 - - - -
25/05:00pm 15.0 ESE 7 10 1027.8 - 0.0 - Mostly clear 10 - - - -
25/04:30pm 16.0 ESE 9 13 1027.6 - 0.0 - Mostly clear 10 - - - -
25/04:00pm 15.6 SE 11 14 1027.6 - 0.0 - Mostly clear 10 - - - -
25/03:30pm 16.7 ESE 11 14 1027.7 - 0.0 - Mostly clear 10 - - - -
25/03:00pm 17.0 ESE 9 13 1027.5 F 0.0 Fine Mostly cloudy 30 - - - -
25/02:30pm 16.6 ESE 9 11 1027.4 - 0.0 - Mostly clear 10 - - - -
25/02:00pm 17.2 ESE 9 11 1027.6 - 0.0 - Mostly clear 10 - - - -
25/01:30pm 16.9 ESE 6 9 1027.8 - 0.0 - Mostly clear 10 - - - -
25/01:00pm 16.5 ESE 8 9 1028.0 - 0.0 - Mostly clear 10 - - - -
25/12:30pm 16.2 ESE 7 9 1028.4 - 0.0 - Mostly clear 10 - - - -
25/12:00pm 16.8 SE 7 8 1028.9 F 0.0 Fine Mostly cloudy 30 - - - -
25/11:30am 16.1 SE 4 7 1029.4 - 0.0 - Mostly clear 10 - - - -
25/11:00am 15.7 NNE 1 4 1029.6 - 0.0 - Mostly clear 10 - - - -
25/10:30am 14.6 WNW 3 4 1029.9 - 0.0 - Mostly clear 10 - - - -
25/10:00am 13.7 NNW 4 4 1030.1 - 0.0 - Mostly clear 10 - - - -
25/09:30am 12.9 WNW 4 5 1030.3 - 0.0 - Mostly clear 10 - - - -
25/09:00am 12.2 WSW 3 4 1030.2 R 1.4 Fine Mostly cloudy 30 - - - -
25/08:30am 11.4 WNW 4 5 1030.2 - 1.4 - Mostly clear 10 - - - -
25/08:00am 10.5 CALM 0 0 1029.7 - 1.4 - Mostly clear 10 - - - -
25/07:30am 9.5 CALM 0 0 1029.4 - 1.4 - Mostly clear 10 - - - -
25/07:00am 9.7 CALM 0 0 1029.2 - 1.2 - Mostly clear 10 - - - -
25/06:30am 10.0 WNW 3 3 1029.0 - 1.2 - Mostly clear 10 - - - -

Other Formats:

Comma delimited format used in spreadsheet applications
http://www.bom.gov.au/fwo/IDW60701/IDW60701.94802.axf

JavaScript Object Notation format (JSON) in row-major order
http://www.bom.gov.au/fwo/IDW60701/IDW60701.94802.json